Time;durP1;ratioP1;P1;durP2;ratioP2;P2;SDS_P1;SDS_P2;PMS_P1;PMS_P2;Temp;Humidity;BMP_temperature;BMP_pressure;BME280_temperature;BME280_humidity;BME280_pressure;Samples;Min_cycle;Max_cycle;Signal;HPM_P1;HPM_P2
2022/07/19 00:00:13;;;;;;;2.57;2.30;;;16.60;53.60;;;;;;4214946;28;20190;-75
2022/07/19 00:02:14;;;;;;;2.63;2.20;;;16.50;53.60;;;;;;4227748;28;20665;-77
2022/07/19 00:04:14;;;;;;;2.77;2.53;;;16.50;53.90;;;;;;4221864;28;20230;-77
2022/07/19 00:06:15;;;;;;;5.20;2.37;;;16.40;54.00;;;;;;4218401;28;20175;-77
2022/07/19 00:08:15;;;;;;;4.27;2.33;;;16.40;54.20;;;;;;4216833;28;20239;-76
2022/07/19 00:10:17;;;;;;;3.73;2.70;;;16.30;54.20;;;;;;4215093;28;20182;-77
2022/07/19 00:12:18;;;;;;;2.47;2.27;;;16.30;54.70;;;;;;4213409;28;20561;-77
2022/07/19 00:14:18;;;;;;;3.63;2.63;;;16.30;54.80;;;;;;4215251;28;20199;-77
2022/07/19 00:16:19;;;;;;;3.83;2.40;;;16.30;55.00;;;;;;4215357;28;20193;-77
2022/07/19 00:18:20;;;;;;;5.77;2.30;;;16.20;55.10;;;;;;4215224;28;20225;-76
2022/07/19 00:20:22;;;;;;;2.20;2.00;;;16.20;55.50;;;;;;4214994;28;20638;-77
2022/07/19 00:22:22;;;;;;;2.60;2.40;;;16.10;55.50;;;;;;4213679;28;20650;-77
2022/07/19 00:24:23;;;;;;;3.93;2.40;;;16.10;55.70;;;;;;4214899;28;20207;-77
2022/07/19 00:26:23;;;;;;;4.27;2.53;;;16.00;55.80;;;;;;4214913;28;20183;-76
2022/07/19 00:28:24;;;;;;;3.40;2.43;;;16.00;55.60;;;;;;4215146;28;20179;-77
2022/07/19 00:30:25;;;;;;;3.70;2.20;;;16.00;55.90;;;;;;4214779;28;20236;-76
2022/07/19 00:32:26;;;;;;;4.03;2.77;;;16.00;56.40;;;;;;4212733;28;20278;-77
2022/07/19 00:34:26;;;;;;;2.47;2.27;;;15.90;56.70;;;;;;4214770;28;20708;-77
2022/07/19 00:36:27;;;;;;;3.20;2.20;;;15.80;56.80;;;;;;4214947;28;20223;-77
2022/07/19 00:38:27;;;;;;;3.87;2.30;;;15.80;56.40;;;;;;4214320;28;20200;-77
2022/07/19 00:40:28;;;;;;;3.37;2.27;;;15.80;56.40;;;;;;4213745;28;20267;-76
2022/07/19 00:42:28;;;;;;;2.90;2.10;;;15.80;56.10;;;;;;4212063;28;20183;-76
2022/07/19 00:44:30;;;;;;;4.67;2.00;;;15.80;56.20;;;;;;4214112;28;20186;-76
2022/07/19 00:46:30;;;;;;;4.60;2.60;;;15.70;57.60;;;;;;4213020;28;20613;-76
2022/07/19 00:48:31;;;;;;;5.10;2.30;;;15.70;56.50;;;;;;4213710;28;20175;-76
2022/07/19 00:50:32;;;;;;;2.50;2.27;;;15.70;56.80;;;;;;4213910;28;20179;-76
2022/07/19 00:52:33;;;;;;;4.03;2.33;;;15.70;57.10;;;;;;4213260;28;20231;-75
2022/07/19 00:54:35;;;;;;;4.37;2.20;;;15.60;57.10;;;;;;4213891;28;20195;-78
2022/07/19 00:56:36;;;;;;;2.73;2.27;;;15.60;57.30;;;;;;4213867;28;20197;-74
2022/07/19 00:58:39;;;;;;;3.80;2.77;;;15.60;57.10;;;;;;4213684;28;20199;-74
2022/07/19 01:00:40;;;;;;;2.57;2.37;;;15.50;57.50;;;;;;4213381;28;20187;-74
2022/07/19 01:02:42;;;;;;;2.60;2.40;;;15.50;57.50;;;;;;4213138;28;20178;-75
2022/07/19 01:04:42;;;;;;;3.57;2.20;;;15.50;57.80;;;;;;4213397;28;20214;-74
2022/07/19 01:06:43;;;;;;;2.77;2.20;;;15.50;58.00;;;;;;4213473;28;20184;-75
2022/07/19 01:08:44;;;;;;;3.17;2.43;;;15.40;58.60;;;;;;4213696;28;20263;-75
2022/07/19 01:10:45;;;;;;;2.50;2.30;;;15.30;58.50;;;;;;4212945;28;20184;-75
2022/07/19 01:12:46;;;;;;;2.83;2.33;;;15.30;58.60;;;;;;4212353;28;20178;-75
2022/07/19 01:14:46;;;;;;;2.60;2.40;;;15.20;58.50;;;;;;4213896;28;20248;-75
2022/07/19 01:16:47;;;;;;;3.00;2.27;;;15.10;59.30;;;;;;4202469;28;20209;-74
2022/07/19 01:18:50;;;;;;;2.50;2.30;;;15.10;59.80;;;;;;4195555;28;20734;-74
2022/07/19 01:20:51;;;;;;;5.83;2.47;;;15.20;59.70;;;;;;4196017;28;20274;-74
2022/07/19 01:22:52;;;;;;;2.50;2.30;;;15.10;59.20;;;;;;4196625;28;20178;-74
2022/07/19 01:24:52;;;;;;;3.00;2.23;;;15.10;58.90;;;;;;4196726;28;20569;-74
2022/07/19 01:26:53;;;;;;;2.23;2.03;;;15.10;58.40;;;;;;4195024;28;20234;-74
2022/07/19 01:28:53;;;;;;;2.57;2.37;;;15.20;58.70;;;;;;4196437;28;20199;-74
2022/07/19 01:30:54;;;;;;;4.53;2.30;;;15.20;58.50;;;;;;4195683;28;20233;-74
2022/07/19 01:32:56;;;;;;;2.50;2.30;;;15.10;58.60;;;;;;4200359;28;20622;-74
2022/07/19 01:34:56;;;;;;;2.40;2.00;;;15.10;58.80;;;;;;4212959;28;20255;-74
2022/07/19 01:36:57;;;;;;;2.40;2.10;;;15.10;59.10;;;;;;4212871;28;20183;-73
2022/07/19 01:38:57;;;;;;;2.40;2.20;;;15.00;59.00;;;;;;4212938;28;20175;-74
2022/07/19 01:40:58;;;;;;;3.30;2.40;;;15.00;59.20;;;;;;4212643;28;20185;-74
2022/07/19 01:42:59;;;;;;;2.30;2.10;;;15.00;59.40;;;;;;4212902;28;20183;-73
2022/07/19 01:45:00;;;;;;;3.53;2.40;;;14.90;59.30;;;;;;4212882;28;20224;-73
2022/07/19 01:47:01;;;;;;;2.13;1.93;;;14.90;59.70;;;;;;4213229;28;20296;-73
2022/07/19 01:49:02;;;;;;;2.33;2.13;;;14.90;59.40;;;;;;4213117;28;20543;-73
2022/07/19 01:51:02;;;;;;;2.77;2.20;;;14.90;59.70;;;;;;4212296;28;20257;-73
2022/07/19 01:53:03;;;;;;;2.37;2.10;;;14.80;59.80;;;;;;4214548;28;20206;-73
2022/07/19 01:55:04;;;;;;;3.93;2.63;;;14.80;61.20;;;;;;4216141;28;20677;-73
2022/07/19 01:57:05;;;;;;;4.17;2.00;;;14.80;60.10;;;;;;4216009;28;20186;-73
2022/07/19 01:59:05;;;;;;;4.03;2.37;;;14.80;59.60;;;;;;4216364;28;20174;-73
2022/07/19 02:01:06;;;;;;;4.23;2.43;;;14.80;59.70;;;;;;4215974;28;20175;-73
2022/07/19 02:03:06;;;;;;;2.50;2.30;;;14.80;60.10;;;;;;4216682;28;20212;-75
2022/07/19 02:05:07;;;;;;;2.20;2.00;;;14.80;60.50;;;;;;4215852;28;20203;-73
2022/07/19 02:07:08;;;;;;;2.60;2.33;;;14.80;60.60;;;;;;4214648;28;20175;-73
2022/07/19 02:09:08;;;;;;;3.23;2.30;;;14.70;60.60;;;;;;4215870;28;20262;-72
2022/07/19 02:13:28;;;;;;;2.37;2.10;;;14.80;60.80;;;;;;4216122;28;20788;-73
2022/07/19 02:15:29;;;;;;;2.90;2.40;;;14.70;60.70;;;;;;4211814;28;20191;-71
2022/07/19 02:17:29;;;;;;;3.23;2.43;;;14.60;61.20;;;;;;4212121;28;20198;-72
2022/07/19 02:19:30;;;;;;;2.83;2.40;;;14.50;61.20;;;;;;4209870;28;20186;-75
2022/07/19 02:21:31;;;;;;;2.43;2.20;;;14.50;61.50;;;;;;4215165;28;20197;-72
2022/07/19 02:23:31;;;;;;;4.47;2.40;;;14.40;61.70;;;;;;4215869;28;20236;-72
2022/07/19 02:25:32;;;;;;;6.27;2.63;;;14.40;61.50;;;;;;4215862;28;20195;-72
2022/07/19 02:27:32;;;;;;;3.53;2.60;;;14.50;61.40;;;;;;4216437;28;20675;-72
2022/07/19 02:29:33;;;;;;;3.37;2.40;;;14.40;61.20;;;;;;4216615;28;20532;-72
2022/07/19 02:31:35;;;;;;;2.50;2.30;;;14.40;61.70;;;;;;4215645;28;20213;-72
2022/07/19 02:33:35;;;;;;;2.60;2.40;;;14.40;61.50;;;;;;4214514;28;20658;-72
2022/07/19 02:35:36;;;;;;;2.53;2.33;;;14.40;61.80;;;;;;4215762;28;20211;-72
2022/07/19 02:37:38;;;;;;;3.00;2.40;;;14.40;61.80;;;;;;4215747;28;20681;-71
2022/07/19 02:39:39;;;;;;;2.97;2.13;;;14.40;62.40;;;;;;4215751;28;20183;-72
2022/07/19 02:41:39;;;;;;;4.27;2.50;;;14.40;62.10;;;;;;4214918;28;20695;-73
2022/07/19 02:43:40;;;;;;;3.10;2.20;;;14.30;62.10;;;;;;4215458;28;20183;-73
2022/07/19 02:45:41;;;;;;;2.40;2.20;;;14.30;62.20;;;;;;4215421;28;20285;-74
2022/07/19 02:47:42;;;;;;;3.27;2.40;;;14.30;62.20;;;;;;4215188;28;20249;-73
2022/07/19 02:49:43;;;;;;;2.30;2.10;;;14.30;62.40;;;;;;4215175;28;20552;-73
2022/07/19 02:51:43;;;;;;;2.23;2.03;;;14.20;62.60;;;;;;4214617;28;20183;-72
2022/07/19 02:53:44;;;;;;;3.57;2.30;;;14.20;62.50;;;;;;4215079;28;20266;-73
2022/07/19 02:55:44;;;;;;;3.50;2.70;;;14.10;62.90;;;;;;4215159;28;20202;-72
2022/07/19 02:57:45;;;;;;;3.03;2.20;;;14.10;63.10;;;;;;4215203;28;20249;-72
2022/07/19 02:59:46;;;;;;;3.00;2.07;;;14.10;63.20;;;;;;4215580;28;20595;-72
2022/07/19 03:01:46;;;;;;;3.30;2.20;;;14.10;63.60;;;;;;4214637;28;20210;-72
2022/07/19 03:03:47;;;;;;;3.10;2.30;;;14.00;63.60;;;;;;4214678;28;20175;-73
2022/07/19 03:05:48;;;;;;;2.20;2.00;;;14.00;63.90;;;;;;4215493;28;20194;-72
2022/07/19 03:07:49;;;;;;;4.90;2.10;;;13.90;64.00;;;;;;4215482;28;20213;-72
2022/07/19 03:09:49;;;;;;;4.43;2.37;;;13.90;64.00;;;;;;4215496;28;20279;-72
2022/07/19 03:11:50;;;;;;;2.30;2.10;;;13.90;63.80;;;;;;4214613;28;20524;-72
2022/07/19 03:13:51;;;;;;;4.60;2.47;;;13.90;63.60;;;;;;4215349;28;20254;-72
2022/07/19 03:15:51;;;;;;;2.43;2.20;;;14.00;63.40;;;;;;4215315;28;20206;-72
2022/07/19 03:17:52;;;;;;;2.90;2.10;;;14.00;62.90;;;;;;4215074;28;20213;-72
2022/07/19 03:19:52;;;;;;;2.47;2.23;;;14.10;62.80;;;;;;4209300;28;20313;-73
2022/07/19 03:21:54;;;;;;;2.40;2.17;;;14.00;62.80;;;;;;4197462;28;20223;-71
2022/07/19 03:23:54;;;;;;;2.67;2.47;;;14.10;62.30;;;;;;4198108;28;20190;-71
2022/07/19 03:25:55;;;;;;;2.30;2.10;;;14.00;62.70;;;;;;4197955;28;20200;-71
2022/07/19 03:27:56;;;;;;;2.20;2.00;;;13.90;63.10;;;;;;4198116;28;20209;-71
2022/07/19 03:29:56;;;;;;;2.40;2.20;;;13.90;63.30;;;;;;4197910;28;20594;-72
2022/07/19 03:31:57;;;;;;;2.43;2.13;;;13.90;63.30;;;;;;4197329;28;20180;-72
2022/07/19 03:33:58;;;;;;;3.83;2.20;;;13.90;63.40;;;;;;4197806;28;20267;-72
2022/07/19 03:35:58;;;;;;;2.30;2.10;;;13.80;63.70;;;;;;4197617;28;20282;-72
2022/07/19 03:37:59;;;;;;;3.93;2.30;;;13.80;63.80;;;;;;4197659;28;20206;-72
2022/07/19 03:39:59;;;;;;;3.63;1.93;;;13.70;63.80;;;;;;4204721;28;20549;-72
2022/07/19 03:42:00;;;;;;;2.53;2.20;;;13.80;63.60;;;;;;4213959;28;20182;-72
2022/07/19 03:44:01;;;;;;;2.63;2.30;;;13.80;63.90;;;;;;4214723;28;20183;-71
2022/07/19 03:46:01;;;;;;;6.03;2.40;;;13.70;64.20;;;;;;4214478;28;20210;-72
2022/07/19 03:48:02;;;;;;;2.90;2.10;;;13.60;64.70;;;;;;4214826;28;20207;-72
2022/07/19 03:50:04;;;;;;;3.80;2.37;;;13.60;65.30;;;;;;4214683;28;20187;-71
2022/07/19 03:52:05;;;;;;;2.43;2.23;;;13.50;65.50;;;;;;4213996;28;20183;-71
2022/07/19 03:54:05;;;;;;;3.07;2.30;;;13.50;65.70;;;;;;4214475;28;20911;-71
2022/07/19 03:56:06;;;;;;;2.47;2.27;;;13.50;66.00;;;;;;4214500;28;20203;-71
2022/07/19 03:58:07;;;;;;;2.73;2.00;;;13.50;65.60;;;;;;4214378;28;20296;-71
2022/07/19 04:00:07;;;;;;;2.20;1.90;;;13.50;65.60;;;;;;4214534;28;20634;-72
2022/07/19 04:02:08;;;;;;;2.30;2.10;;;13.50;65.30;;;;;;4213512;28;20179;-71
2022/07/19 04:04:09;;;;;;;3.87;2.17;;;13.50;65.10;;;;;;4213790;28;20194;-71
2022/07/19 04:06:10;;;;;;;2.80;2.10;;;13.50;65.60;;;;;;4214012;28;20695;-71
2022/07/19 04:08:11;;;;;;;2.50;2.30;;;13.50;65.60;;;;;;4213770;28;20222;-71
2022/07/19 04:10:12;;;;;;;3.53;2.40;;;13.50;66.10;;;;;;4213977;28;20183;-71
2022/07/19 04:12:12;;;;;;;2.40;2.20;;;13.50;66.00;;;;;;4213259;28;20178;-71
2022/07/19 04:14:13;;;;;;;2.27;2.07;;;13.50;66.10;;;;;;4212350;28;20274;-71
2022/07/19 04:16:13;;;;;;;4.83;2.23;;;13.50;66.20;;;;;;4212703;28;20224;-71
2022/07/19 04:18:14;;;;;;;2.70;2.03;;;13.60;66.10;;;;;;4213674;28;20209;-71
2022/07/19 04:20:14;;;;;;;3.57;2.10;;;13.60;65.20;;;;;;4213592;28;20175;-71
2022/07/19 04:22:15;;;;;;;2.30;2.10;;;13.60;65.30;;;;;;4213242;28;20186;-71
2022/07/19 04:24:15;;;;;;;2.23;2.03;;;13.70;65.20;;;;;;4213862;28;20527;-70
2022/07/19 04:26:16;;;;;;;2.63;2.30;;;13.70;65.50;;;;;;4213959;28;20174;-71
2022/07/19 04:28:17;;;;;;;2.43;2.20;;;13.70;65.50;;;;;;4213837;28;20171;-71
2022/07/19 04:30:17;;;;;;;2.63;2.43;;;13.70;65.40;;;;;;4214073;28;20559;-71
2022/07/19 04:32:18;;;;;;;4.13;2.20;;;13.70;65.80;;;;;;4202848;28;20283;-70
2022/07/19 04:34:18;;;;;;;3.90;2.17;;;13.70;66.00;;;;;;4211254;28;20699;-71
2022/07/19 04:36:19;;;;;;;3.50;2.10;;;13.70;66.00;;;;;;4212652;28;20236;-70
2022/07/19 04:38:23;;;;;;;2.40;2.20;;;13.70;65.90;;;;;;4213743;28;20230;-70
2022/07/19 04:40:23;;;;;;;2.90;2.00;;;13.70;65.50;;;;;;4213618;28;20156;-71
2022/07/19 04:42:24;;;;;;;2.70;2.50;;;13.80;65.30;;;;;;4213372;28;20231;-71
2022/07/19 04:44:24;;;;;;;4.07;2.37;;;13.80;65.30;;;;;;4213637;28;20641;-69
2022/07/19 04:46:25;;;;;;;3.50;2.30;;;13.90;65.10;;;;;;4213585;28;20175;-70
2022/07/19 04:48:26;;;;;;;2.40;2.20;;;13.90;65.30;;;;;;4213449;28;20175;-70
2022/07/19 04:50:27;;;;;;;2.60;2.40;;;13.80;66.00;;;;;;4213259;28;20178;-70
2022/07/19 04:52:27;;;;;;;2.50;2.20;;;13.80;66.20;;;;;;4212614;28;20670;-69
2022/07/19 04:54:28;;;;;;;2.30;2.10;;;13.80;66.30;;;;;;4211809;28;20199;-70
2022/07/19 04:56:29;;;;;;;3.07;2.40;;;13.80;66.00;;;;;;4211798;28;20268;-69
2022/07/19 04:58:29;;;;;;;2.53;2.33;;;13.80;65.80;;;;;;4213085;28;20210;-69
2022/07/19 05:00:30;;;;;;;2.47;2.27;;;13.90;66.60;;;;;;4213193;28;20175;-69
2022/07/19 05:02:30;;;;;;;2.97;2.27;;;13.90;66.30;;;;;;4212254;28;20183;-69
2022/07/19 05:04:31;;;;;;;2.30;2.10;;;13.80;66.00;;;;;;4212914;28;20207;-69
2022/07/19 05:06:32;;;;;;;3.13;2.20;;;13.90;65.90;;;;;;4213062;28;20190;-69
2022/07/19 05:08:32;;;;;;;2.43;2.00;;;14.00;65.20;;;;;;4212990;28;20174;-69
2022/07/19 05:10:33;;;;;;;2.40;2.20;;;14.00;64.90;;;;;;4212949;28;20183;-69
2022/07/19 05:12:34;;;;;;;2.73;2.43;;;14.00;65.00;;;;;;4212373;28;20178;-69
2022/07/19 05:14:35;;;;;;;4.10;1.93;;;14.10;65.10;;;;;;4212962;28;20213;-69
2022/07/19 05:16:35;;;;;;;2.47;2.20;;;14.10;65.00;;;;;;4201755;28;20195;-69
2022/07/19 05:18:36;;;;;;;3.53;2.50;;;14.20;65.10;;;;;;4196061;28;20260;-69
2022/07/19 05:20:36;;;;;;;4.13;2.20;;;14.20;64.90;;;;;;4196020;28;20192;-69
2022/07/19 05:22:37;;;;;;;2.60;2.40;;;14.30;64.20;;;;;;4195620;28;20179;-70
2022/07/19 05:24:37;;;;;;;3.40;2.30;;;14.30;64.30;;;;;;4196119;28;20199;-69
2022/07/19 05:26:38;;;;;;;3.73;2.20;;;14.40;64.30;;;;;;4195956;28;20256;-69
2022/07/19 05:28:39;;;;;;;4.27;2.17;;;14.50;64.00;;;;;;4196077;28;20180;-70
2022/07/19 05:30:41;;;;;;;2.73;1.80;;;14.50;64.40;;;;;;4195929;28;20186;-69
2022/07/19 05:32:41;;;;;;;4.37;2.47;;;14.50;65.30;;;;;;4195886;28;20167;-69
2022/07/19 05:34:42;;;;;;;3.10;2.30;;;14.60;65.10;;;;;;4195968;28;20566;-69
2022/07/19 05:36:42;;;;;;;2.20;2.00;;;14.70;64.00;;;;;;4196465;28;20875;-69
2022/07/19 05:38:43;;;;;;;2.40;2.20;;;14.80;63.50;;;;;;4196175;28;20214;-70
2022/07/19 05:40:44;;;;;;;2.33;1.90;;;14.90;62.80;;;;;;4195654;28;20184;-69
2022/07/19 05:42:44;;;;;;;2.87;1.97;;;14.90;63.10;;;;;;4196206;28;20313;-69
2022/07/19 05:44:45;;;;;;;2.87;2.40;;;15.00;62.00;;;;;;4196065;28;20775;-70
2022/07/19 05:46:45;;;;;;;3.23;2.33;;;15.10;62.40;;;;;;4196043;28;20205;-69
2022/07/19 05:48:46;;;;;;;2.40;2.20;;;15.20;62.10;;;;;;4200692;28;20615;-69
2022/07/19 05:50:46;;;;;;;4.40;2.07;;;15.10;62.80;;;;;;4212176;28;20179;-69
2022/07/19 05:52:47;;;;;;;2.63;1.90;;;15.20;62.50;;;;;;4212912;28;20174;-70
2022/07/19 05:54:47;;;;;;;2.87;2.03;;;15.20;63.00;;;;;;4212655;28;20214;-70
2022/07/19 05:56:48;;;;;;;2.10;1.90;;;15.40;63.10;;;;;;4213026;28;20189;-70
2022/07/19 05:58:48;;;;;;;3.17;2.17;;;15.40;63.70;;;;;;4212829;28;20238;-70
2022/07/19 06:03:08;;;;;;;2.33;2.13;;;15.60;63.30;;;;;;4212904;28;20687;-70
2022/07/19 06:05:09;;;;;;;3.23;1.90;;;15.70;62.70;;;;;;4212476;28;20199;-70
2022/07/19 06:07:09;;;;;;;2.10;1.90;;;15.90;63.50;;;;;;4212580;28;20177;-69
2022/07/19 06:09:11;;;;;;;2.40;2.20;;;15.90;63.10;;;;;;4212927;28;20256;-69
2022/07/19 06:11:13;;;;;;;3.20;1.90;;;16.00;61.20;;;;;;4211928;28;20649;-74
2022/07/19 06:13:14;;;;;;;2.40;1.90;;;16.10;60.60;;;;;;4212558;28;20178;-74
2022/07/19 06:15:15;;;;;;;1.97;1.87;;;16.20;59.70;;;;;;4212751;28;20566;-74
2022/07/19 06:17:15;;;;;;;2.17;1.90;;;16.40;59.00;;;;;;4212300;28;20172;-74
2022/07/19 06:19:16;;;;;;;2.00;1.90;;;16.50;57.60;;;;;;4211155;28;20178;-74
2022/07/19 06:21:18;;;;;;;1.90;1.70;;;16.60;56.70;;;;;;4211766;28;20286;-73
2022/07/19 06:23:19;;;;;;;3.63;2.33;;;16.90;55.40;;;;;;4212498;28;20186;-73
2022/07/19 06:25:20;;;;;;;2.70;2.20;;;17.00;55.30;;;;;;4212533;28;20194;-73
2022/07/19 06:27:20;;;;;;;2.23;2.03;;;17.10;55.40;;;;;;4212598;28;20683;-74
2022/07/19 06:29:21;;;;;;;3.73;2.37;;;17.20;53.20;;;;;;4212437;28;20194;-74
2022/07/19 06:31:22;;;;;;;2.43;2.00;;;17.40;53.40;;;;;;4211815;28;20168;-74
2022/07/19 06:33:22;;;;;;;2.10;1.87;;;17.40;52.60;;;;;;4212599;28;20518;-74
2022/07/19 06:35:24;;;;;;;2.30;2.10;;;17.60;52.00;;;;;;4212525;28;20191;-74
2022/07/19 06:37:24;;;;;;;2.57;1.97;;;17.90;51.70;;;;;;4212161;28;20608;-73
2022/07/19 06:39:25;;;;;;;4.17;3.73;;;18.10;50.50;;;;;;4213180;28;20181;-73
2022/07/19 06:41:26;;;;;;;2.60;2.17;;;18.30;47.80;;;;;;4214745;28;20182;-73
2022/07/19 06:43:26;;;;;;;6.73;1.90;;;18.90;46.30;;;;;;4215100;28;20178;-73
2022/07/19 06:45:27;;;;;;;2.03;1.63;;;19.10;47.10;;;;;;4215155;28;20282;-74
2022/07/19 06:47:28;;;;;;;5.40;2.13;;;19.40;44.50;;;;;;4215289;28;20181;-74
2022/07/19 06:49:29;;;;;;;2.40;1.93;;;19.70;43.50;;;;;;4215172;28;20211;-73
2022/07/19 06:51:29;;;;;;;1.90;1.80;;;19.80;44.40;;;;;;4213359;28;20689;-74
2022/07/19 06:53:30;;;;;;;1.83;1.70;;;20.10;42.60;;;;;;4214669;28;20187;-74
2022/07/19 06:55:30;;;;;;;3.90;2.10;;;20.10;42.50;;;;;;4215026;28;20267;-75
2022/07/19 06:57:31;;;;;;;1.50;1.40;;;20.50;39.70;;;;;;4214991;28;20260;-74
2022/07/19 06:59:32;;;;;;;2.77;1.60;;;20.50;40.10;;;;;;4214894;28;20218;-74
2022/07/19 07:01:32;;;;;;;1.60;1.50;;;20.90;39.10;;;;;;4212948;28;20179;-74
2022/07/19 07:03:33;;;;;;;3.20;1.60;;;20.90;38.20;;;;;;4215037;28;20250;-74
2022/07/19 07:05:33;;;;;;;2.93;1.77;;;21.10;37.20;;;;;;4215027;28;20200;-74
2022/07/19 07:07:35;;;;;;;2.87;1.60;;;21.50;35.60;;;;;;4214722;28;20187;-74
2022/07/19 07:09:35;;;;;;;2.70;1.60;;;21.70;37.00;;;;;;4214595;28;20178;-74
2022/07/19 07:11:36;;;;;;;2.17;1.63;;;21.80;35.70;;;;;;4214273;28;20532;-74
2022/07/19 07:13:36;;;;;;;3.43;1.57;;;22.20;34.50;;;;;;4214844;28;20266;-74
2022/07/19 07:15:38;;;;;;;3.73;1.80;;;22.30;33.60;;;;;;4214658;28;20242;-74
2022/07/19 07:17:39;;;;;;;2.43;1.70;;;22.60;33.10;;;;;;4214773;28;20708;-74
2022/07/19 07:19:39;;;;;;;2.00;1.53;;;22.50;35.10;;;;;;4214809;28;20179;-75
2022/07/19 07:21:40;;;;;;;2.73;1.70;;;22.60;31.90;;;;;;4212737;28;20700;-75
2022/07/19 07:23:40;;;;;;;2.90;1.67;;;22.70;32.20;;;;;;4214687;28;20183;-75
2022/07/19 07:25:41;;;;;;;2.87;1.50;;;23.00;31.50;;;;;;4208280;28;20231;-74
2022/07/19 07:27:41;;;;;;;4.77;1.60;;;23.10;31.70;;;;;;4197895;28;20419;-75
2022/07/19 07:29:42;;;;;;;1.50;1.40;;;23.20;32.30;;;;;;4197794;28;20180;-74
2022/07/19 07:31:42;;;;;;;3.97;1.90;;;23.30;31.90;;;;;;4197017;28;20176;-75
2022/07/19 07:33:43;;;;;;;2.20;1.80;;;23.40;30.30;;;;;;4197755;28;20553;-75
2022/07/19 07:35:43;;;;;;;2.47;1.67;;;23.70;31.40;;;;;;4197614;28;20716;-75
2022/07/19 07:37:44;;;;;;;2.00;1.50;;;23.60;30.00;;;;;;4197663;28;20960;-75
2022/07/19 07:39:45;;;;;;;2.63;1.70;;;23.60;32.50;;;;;;4200744;28;20183;-75
2022/07/19 07:41:45;;;;;;;2.07;1.70;;;23.70;29.80;;;;;;4213626;28;20179;-75
2022/07/19 07:43:46;;;;;;;2.60;1.80;;;23.80;31.80;;;;;;4216103;28;20812;-77
2022/07/19 07:45:46;;;;;;;3.57;1.60;;;23.90;30.30;;;;;;4215309;28;20202;-75
2022/07/19 07:47:47;;;;;;;4.53;1.80;;;24.20;29.00;;;;;;4214659;28;20175;-75
2022/07/19 07:49:50;;;;;;;4.17;1.70;;;24.30;28.40;;;;;;4214852;28;20186;-77
2022/07/19 07:51:50;;;;;;;3.73;2.00;;;24.50;28.50;;;;;;4214361;28;20193;-78
2022/07/19 07:53:51;;;;;;;2.37;2.00;;;24.70;28.90;;;;;;4217240;28;20666;-77
2022/07/19 07:55:52;;;;;;;3.60;1.90;;;24.90;29.30;;;;;;4215427;28;20202;-75
2022/07/19 07:57:53;;;;;;;9.83;2.10;;;24.90;28.50;;;;;;4203949;28;20261;-74
2022/07/19 07:59:54;;;;;;;3.10;1.73;;;24.90;28.70;;;;;;4212865;28;20183;-76
2022/07/19 08:01:54;;;;;;;2.43;1.80;;;25.10;27.40;;;;;;4212027;28;20190;-78
2022/07/19 08:03:55;;;;;;;4.03;1.80;;;25.30;27.60;;;;;;4211887;28;20262;-77
2022/07/19 08:05:57;;;;;;;3.40;2.00;;;25.40;27.00;;;;;;4212809;28;20230;-77
2022/07/19 08:08:02;;;;;;;4.50;1.97;;;25.60;28.00;;;;;;4213568;28;20183;-77
2022/07/19 08:10:05;;;;;;;3.93;1.77;;;25.70;26.30;;;;;;4211334;28;20657;-79
2022/07/19 08:12:06;;;;;;;8.93;8.40;;;25.80;26.70;;;;;;4216086;28;20681;-77
2022/07/19 08:14:07;;;;;;;4.33;3.57;;;25.80;25.60;;;;;;4216267;28;20178;-79
2022/07/19 08:16:07;;;;;;;6.20;5.70;;;25.80;26.00;;;;;;4214324;28;20249;-75
2022/07/19 08:18:08;;;;;;;5.00;2.03;;;26.00;25.60;;;;;;4210219;28;20755;-77
2022/07/19 08:20:09;;;;;;;1.70;1.60;;;26.10;25.50;;;;;;4211120;28;20225;-80
2022/07/19 08:22:09;;;;;;;2.00;1.80;;;26.20;25.20;;;;;;4211548;28;20202;-77
2022/07/19 08:24:10;;;;;;;2.10;1.70;;;26.20;24.80;;;;;;4212178;28;20220;-77
2022/07/19 08:26:10;;;;;;;2.50;2.23;;;26.30;25.20;;;;;;4209916;28;20206;-79
2022/07/19 08:28:11;;;;;;;3.20;2.47;;;26.40;24.90;;;;;;4214018;28;20199;-81
2022/07/19 08:30:13;;;;;;;2.37;1.90;;;26.40;24.80;;;;;;4212155;28;20186;-78
2022/07/19 08:32:13;;;;;;;1.97;1.60;;;26.60;24.40;;;;;;4211548;28;20183;-78
2022/07/19 08:34:14;;;;;;;3.00;2.00;;;26.90;26.30;;;;;;4213435;28;20219;-78
2022/07/19 08:36:14;;;;;;;4.40;1.97;;;26.90;23.80;;;;;;4209841;28;20182;-76
2022/07/19 08:38:15;;;;;;;3.50;3.30;;;26.80;23.90;;;;;;4209091;28;20197;-76
2022/07/19 08:40:15;;;;;;;4.60;2.10;;;26.90;23.60;;;;;;4209343;28;20194;-77
2022/07/19 08:42:20;;;;;;;5.60;2.40;;;26.90;23.90;;;;;;4207552;28;20183;-75
2022/07/19 08:44:22;;;;;;;2.93;2.13;;;27.00;24.20;;;;;;4209738;28;20562;-75
2022/07/19 08:46:23;;;;;;;4.00;2.17;;;27.20;23.70;;;;;;4208630;28;20183;-76
2022/07/19 08:48:23;;;;;;;5.77;5.27;;;27.20;23.60;;;;;;4209661;28;20187;-76
2022/07/19 08:50:26;;;;;;;5.47;2.43;;;27.30;23.30;;;;;;4209406;28;20257;-77
2022/07/19 08:52:27;;;;;;;6.37;2.20;;;27.30;23.60;;;;;;4208348;28;20190;-77
2022/07/19 08:54:27;;;;;;;2.93;2.03;;;27.50;22.90;;;;;;4208398;28;20187;-76
2022/07/19 08:58:47;;;;;;;4.57;2.10;;;27.60;22.40;;;;;;4210503;28;20217;-77
2022/07/19 09:00:48;;;;;;;4.67;2.20;;;27.70;22.50;;;;;;4210983;28;20222;-75
2022/07/19 09:03:06;;;;;;;6.37;3.03;;;27.70;21.70;;;;;;4210562;28;20221;-75
2022/07/19 09:05:09;;;;;;;3.63;2.40;;;27.80;21.90;;;;;;4211347;28;20710;-77
2022/07/19 09:07:10;;;;;;;3.80;2.30;;;27.80;21.70;;;;;;4210389;28;20191;-78
2022/07/19 09:09:12;;;;;;;4.43;3.47;;;27.60;21.30;;;;;;4210731;28;20201;-77
2022/07/19 09:11:32;;;;;;;2.60;2.23;;;27.80;21.60;;;;;;4209482;28;20187;-77
2022/07/19 09:13:34;;;;;;;3.43;2.70;;;28.00;21.80;;;;;;4211317;28;20182;-77
2022/07/19 09:15:52;;;;;;;12.77;11.70;;;28.10;22.00;;;;;;4210086;28;20691;-76
2022/07/19 09:18:09;;;;;;;2.50;2.27;;;28.20;20.50;;;;;;4208963;28;20247;-76
2022/07/19 09:20:26;;;;;;;4.03;2.17;;;28.00;21.20;;;;;;4210484;28;20178;-76
2022/07/19 09:22:28;;;;;;;5.53;2.50;;;28.30;21.30;;;;;;4209055;28;20187;-75
2022/07/19 09:24:31;;;;;;;3.67;3.23;;;28.50;20.50;;;;;;4210831;28;20224;-78
2022/07/19 09:26:31;;;;;;;5.70;2.23;;;28.40;20.00;;;;;;4211335;28;20604;-78
2022/07/19 09:28:33;;;;;;;4.30;2.43;;;28.50;20.90;;;;;;4210817;28;20193;-77
2022/07/19 09:30:40;;;;;;;4.57;3.20;;;28.70;20.90;;;;;;4211408;28;20269;-78
2022/07/19 09:32:41;;;;;;;6.20;4.50;;;28.70;19.80;;;;;;4211603;28;20191;-78
2022/07/19 09:34:52;;;;;;;2.67;2.47;;;28.70;19.50;;;;;;4209969;28;20306;-77
2022/07/19 09:37:11;;;;;;;4.77;4.37;;;28.80;19.90;;;;;;4212801;28;20194;-77
2022/07/19 09:39:27;;;;;;;2.67;2.37;;;28.90;19.90;;;;;;4210240;28;20205;-78
2022/07/19 09:41:28;;;;;;;2.53;2.17;;;29.50;19.80;;;;;;4208774;28;20545;-78
2022/07/19 09:43:29;;;;;;;5.00;2.70;;;29.60;19.40;;;;;;4209944;28;20174;-78
2022/07/19 09:45:32;;;;;;;3.03;2.70;;;29.50;19.20;;;;;;4209490;28;20199;-75
2022/07/19 09:47:35;;;;;;;6.33;2.40;;;29.50;19.10;;;;;;4209706;28;20608;-76
2022/07/19 09:49:35;;;;;;;2.87;2.53;;;29.70;18.90;;;;;;4209789;28;20205;-81
2022/07/19 09:51:38;;;;;;;3.63;3.33;;;29.60;19.60;;;;;;4213005;28;20254;-84
2022/07/19 09:53:40;;;;;;;4.10;2.50;;;29.20;19.10;;;;;;4215062;28;20209;-81
2022/07/19 09:55:41;;;;;;;3.40;2.63;;;29.30;19.00;;;;;;4212836;28;20689;-76
2022/07/19 09:57:47;;;;;;;4.40;2.40;;;29.40;19.20;;;;;;4211903;28;20293;-77
2022/07/19 09:59:53;;;;;;;8.13;6.40;;;29.40;19.50;;;;;;4222094;28;20197;-77
2022/07/19 10:01:56;;;;;;;5.43;2.80;;;30.10;19.10;;;;;;4215877;28;20182;-78
2022/07/19 10:04:02;;;;;;;3.73;2.90;;;30.20;18.70;;;;;;4212228;28;20575;-77
2022/07/19 10:06:03;;;;;;;4.53;2.73;;;30.60;18.70;;;;;;4214683;28;20248;-79
2022/07/19 10:08:05;;;;;;;2.70;2.42;;;30.60;18.60;;;;;;4213648;28;20622;-74
2022/07/19 10:10:12;;;;;;;3.43;2.80;;;30.40;18.20;;;;;;4214212;28;20187;-76
2022/07/19 10:12:13;;;;;;;7.43;6.93;;;30.70;18.20;;;;;;4213242;28;20164;-77
2022/07/19 10:14:14;;;;;;;6.07;5.47;;;30.90;18.30;;;;;;4217631;28;20232;-78
2022/07/19 10:16:22;;;;;;;3.80;2.65;;;30.90;18.00;;;;;;4220202;28;20665;-77
2022/07/19 10:18:32;;;;;;;11.43;10.75;;;31.10;18.00;;;;;;4217533;28;20208;-75
2022/07/19 10:20:33;;;;;;;5.65;3.00;;;30.70;17.60;;;;;;4219527;28;20194;-78
2022/07/19 10:22:34;;;;;;;4.10;3.00;;;30.90;17.90;;;;;;4199706;28;20201;-79
2022/07/19 10:24:48;;;;;;;3.72;3.30;;;31.20;17.70;;;;;;4216191;28;20199;-77
2022/07/19 10:26:56;;;;;;;6.25;3.20;;;31.30;17.00;;;;;;4215019;28;20766;-78
2022/07/19 10:29:10;;;;;;;6.38;2.88;;;31.50;17.40;;;;;;4211933;28;20191;-76
2022/07/19 10:31:30;;;;;;;8.60;7.97;;;31.80;16.50;;;;;;4211057;28;20215;-75
2022/07/19 10:33:33;;;;;;;4.63;4.22;;;31.80;16.70;;;;;;4211626;28;20182;-76
2022/07/19 10:35:36;;;;;;;5.53;5.00;;;31.70;17.00;;;;;;4214030;28;20205;-76
2022/07/19 10:37:40;;;;;;;6.35;4.90;;;31.60;16.60;;;;;;4211043;28;20227;-75